createdAt,value
2018-04-19T00:02:07.282Z,5.57
2018-04-19T00:04:35.318Z,2.30
2018-04-19T00:07:02.766Z,5.70
2018-04-19T00:09:30.310Z,2.60
2018-04-19T00:11:57.769Z,3.17
2018-04-19T00:14:25.223Z,3.53
2018-04-19T00:16:52.674Z,2.83
2018-04-19T00:19:20.119Z,3.27
2018-04-19T00:21:47.545Z,2.93
2018-04-19T00:24:15.878Z,11.50
2018-04-19T00:26:43.315Z,4.13
2018-04-19T00:29:10.742Z,3.50
2018-04-19T00:31:38.190Z,2.60
2018-04-19T00:34:06.389Z,5.97
2018-04-19T00:36:33.850Z,2.67
2018-04-19T00:39:01.310Z,2.80
2018-04-19T00:41:28.790Z,2.70
2018-04-19T00:43:56.241Z,6.70
2018-04-19T00:46:23.691Z,2.43
2018-04-19T00:48:51.113Z,2.23
2018-04-19T00:51:18.613Z,9.40
2018-04-19T00:53:46.070Z,2.40
2018-04-19T00:56:13.504Z,2.70
2018-04-19T00:58:40.979Z,2.93
2018-04-19T01:01:08.414Z,3.03
2018-04-19T01:03:35.846Z,2.93
2018-04-19T01:06:04.066Z,3.20
2018-04-19T01:08:31.503Z,2.40
2018-04-19T01:10:58.934Z,3.40
2018-04-19T01:13:27.135Z,4.20
2018-04-19T01:15:54.614Z,6.13
2018-04-19T01:18:22.050Z,3.00
2018-04-19T01:20:49.478Z,3.50
2018-04-19T01:23:17.699Z,2.87
2018-04-19T01:25:45.147Z,21.00
2018-04-19T01:28:12.587Z,3.20
2018-04-19T01:30:40.016Z,4.60
2018-04-19T01:33:08.223Z,3.50
2018-04-19T01:35:47.581Z,4.10
2018-04-19T01:38:15.038Z,3.67
2018-04-19T01:40:42.483Z,2.90
2018-04-19T01:43:09.937Z,3.47
2018-04-19T01:45:37.365Z,2.80
2018-04-19T01:48:05.388Z,2.77
2018-04-19T01:50:32.845Z,4.77
2018-04-19T01:53:00.274Z,3.20
2018-04-19T01:55:27.710Z,2.60
2018-04-19T01:57:55.978Z,5.23
2018-04-19T02:00:23.478Z,3.10
2018-04-19T02:02:50.923Z,2.40
2018-04-19T02:05:18.358Z,8.77
2018-04-19T02:07:46.366Z,3.30
2018-04-19T02:10:13.795Z,2.60
2018-04-19T02:12:41.279Z,4.93
2018-04-19T02:15:08.726Z,2.60
2018-04-19T02:17:36.168Z,2.77
2018-04-19T02:20:03.646Z,3.53
2018-04-19T02:22:31.082Z,4.27
2018-04-19T02:24:59.298Z,2.57
2018-04-19T02:27:26.737Z,3.10
2018-04-19T02:29:54.170Z,4.30
2018-04-19T02:32:21.632Z,3.03
2018-04-19T02:34:49.102Z,6.07
2018-04-19T02:37:16.560Z,3.03
2018-04-19T02:39:44.006Z,5.03
2018-04-19T02:42:11.435Z,3.70
2018-04-19T02:44:38.930Z,3.30
2018-04-19T02:47:06.391Z,3.83
2018-04-19T02:49:33.850Z,5.73
2018-04-19T02:52:01.303Z,3.97
2018-04-19T02:54:28.746Z,4.03
2018-04-19T02:56:56.219Z,3.07
2018-04-19T02:59:23.675Z,2.60
2018-04-19T03:01:51.139Z,3.07
2018-04-19T03:04:18.575Z,3.00
2018-04-19T03:06:46.019Z,3.73
2018-04-19T03:09:13.451Z,3.23
2018-04-19T03:11:41.651Z,2.80
2018-04-19T03:14:09.091Z,5.00
2018-04-19T03:16:36.525Z,3.00
2018-04-19T03:19:04.762Z,4.27
2018-04-19T03:21:32.218Z,3.57
2018-04-19T03:23:59.663Z,2.70
2018-04-19T03:26:27.137Z,3.20
2018-04-19T03:28:54.697Z,3.53
2018-04-19T03:31:22.126Z,3.90
2018-04-19T03:33:49.558Z,6.37
2018-04-19T03:36:17.039Z,5.70
2018-04-19T03:38:44.480Z,3.30
2018-04-19T03:41:11.923Z,7.87
2018-04-19T03:43:40.117Z,5.13
2018-04-19T03:46:07.636Z,6.27
2018-04-19T03:48:35.069Z,8.47
2018-04-19T03:51:02.530Z,3.07
2018-04-19T03:53:30.078Z,6.70
2018-04-19T03:55:57.642Z,3.97
2018-04-19T03:58:25.079Z,5.10
2018-04-19T04:00:52.533Z,3.30
2018-04-19T04:03:20.011Z,4.80
2018-04-19T04:05:47.470Z,3.67
2018-04-19T04:08:14.922Z,4.30
2018-04-19T04:10:42.356Z,3.83
2018-04-19T04:13:09.838Z,3.77
2018-04-19T04:15:37.273Z,3.60
2018-04-19T04:18:16.636Z,7.60
2018-04-19T04:20:55.964Z,3.77
2018-04-19T04:23:39.191Z,4.50
2018-04-19T04:26:06.646Z,5.03
2018-04-19T04:28:34.102Z,2.50
2018-04-19T04:31:01.578Z,4.53
2018-04-19T04:33:29.024Z,9.83
2018-04-19T04:35:56.475Z,4.50
2018-04-19T04:38:23.912Z,3.60
2018-04-19T04:40:51.370Z,3.60
2018-04-19T04:43:18.851Z,6.80
2018-04-19T04:45:46.281Z,4.10
2018-04-19T04:48:13.722Z,4.20
2018-04-19T04:50:41.169Z,6.53
2018-04-19T04:53:09.390Z,6.43
2018-04-19T04:55:36.837Z,5.73
2018-04-19T04:58:04.306Z,4.43
2018-04-19T05:00:31.763Z,4.30
2018-04-19T05:02:59.218Z,3.57
2018-04-19T05:05:26.678Z,5.30
2018-04-19T05:07:54.181Z,6.50
2018-04-19T05:10:22.411Z,5.40
2018-04-19T05:12:50.674Z,5.70
2018-04-19T05:15:18.109Z,9.50
2018-04-19T05:17:45.604Z,4.30
2018-04-19T05:20:13.164Z,4.83
2018-04-19T05:22:40.613Z,4.77
2018-04-19T05:25:08.174Z,7.50
2018-04-19T05:27:35.629Z,3.90
2018-04-19T05:30:03.057Z,5.63
2018-04-19T05:32:30.542Z,3.50
2018-04-19T05:34:58.881Z,3.50
2018-04-19T05:37:26.379Z,7.90
2018-04-19T05:39:53.810Z,5.63
2018-04-19T05:42:21.287Z,5.20
2018-04-19T05:44:49.170Z,5.83
2018-04-19T05:47:16.603Z,5.90
2018-04-19T05:49:44.071Z,5.00
2018-04-19T05:52:11.517Z,3.40
2018-04-19T05:54:39.131Z,4.10
2018-04-19T05:57:09.003Z,4.77
2018-04-19T05:59:37.710Z,8.83
2018-04-19T06:02:05.242Z,7.47
2018-04-19T06:04:32.682Z,9.10
2018-04-19T06:07:00.625Z,5.20
2018-04-19T06:09:28.843Z,4.97
2018-04-19T06:11:56.302Z,5.10
2018-04-19T06:14:23.967Z,4.57
2018-04-19T06:16:51.411Z,7.80
2018-04-19T06:19:18.849Z,7.30
2018-04-19T06:21:46.289Z,6.83
2018-04-19T06:24:14.490Z,9.33
2018-04-19T06:26:41.962Z,3.67
2018-04-19T06:29:09.390Z,3.70
2018-04-19T06:31:36.822Z,6.23
2018-04-19T06:34:05.058Z,3.37
2018-04-19T06:36:32.614Z,5.77
2018-04-19T06:39:00.182Z,3.50
2018-04-19T06:41:27.623Z,6.57
2018-04-19T06:43:55.726Z,7.07
2018-04-19T06:46:23.153Z,6.07
2018-04-19T06:48:50.611Z,7.40
2018-04-19T06:51:18.091Z,5.87
2018-04-19T06:53:45.537Z,8.00
2018-04-19T06:56:13.094Z,5.07
2018-04-19T06:58:40.542Z,5.50
2018-04-19T07:01:07.986Z,9.17
2018-04-19T07:03:35.421Z,5.60
2018-04-19T07:06:02.862Z,5.80
2018-04-19T07:08:31.090Z,11.17
2018-04-19T07:10:58.546Z,6.70
2018-04-19T07:13:26.007Z,9.13
2018-04-19T07:15:53.466Z,8.97
2018-04-19T07:18:20.906Z,4.27
2018-04-19T07:20:48.351Z,5.60
2018-04-19T07:23:15.786Z,5.50
2018-04-19T07:25:43.289Z,6.73
2018-04-19T07:28:10.842Z,10.53
2018-04-19T07:30:38.607Z,9.60
2018-04-19T07:33:06.066Z,9.30
2018-04-19T07:35:33.519Z,6.60
2018-04-19T07:38:00.957Z,10.13
2018-04-19T07:40:28.435Z,7.33
2018-04-19T07:42:55.878Z,7.33
2018-04-19T07:45:23.346Z,9.33
2018-04-19T07:47:50.794Z,11.13
2018-04-19T07:50:18.257Z,12.13
2018-04-19T07:52:45.694Z,7.77
2018-04-19T07:55:13.152Z,13.20
2018-04-19T07:57:40.581Z,17.33
2018-04-19T08:00:08.811Z,12.40
2018-04-19T08:02:36.273Z,8.10
2018-04-19T08:05:03.702Z,10.83
2018-04-19T08:07:31.137Z,11.30
2018-04-19T08:09:58.583Z,12.27
2018-04-19T08:12:26.815Z,9.60
2018-04-19T08:14:54.329Z,10.23
2018-04-19T08:17:21.821Z,9.10
2018-04-19T08:19:49.281Z,12.50
2018-04-19T08:22:16.714Z,10.17
2018-04-19T08:24:44.157Z,10.23
2018-04-19T08:27:11.599Z,12.23
2018-04-19T08:29:39.826Z,14.77
2018-04-19T08:32:07.289Z,11.80
2018-04-19T08:34:34.852Z,14.13
2018-04-19T08:37:02.286Z,13.67
2018-04-19T08:39:29.727Z,11.90
2018-04-19T08:41:57.210Z,11.63
2018-04-19T08:44:24.671Z,18.10
2018-04-19T08:46:52.112Z,14.13
2018-04-19T08:49:19.563Z,12.00
2018-04-19T08:51:47.043Z,13.00
2018-04-19T08:54:14.607Z,18.93
2018-04-19T08:56:42.042Z,20.63
2018-04-19T08:59:09.498Z,18.13
2018-04-19T09:01:37.151Z,12.10
2018-04-19T09:04:04.582Z,11.90
2018-04-19T09:06:32.786Z,11.53
2018-04-19T09:09:00.265Z,10.50
2018-04-19T09:11:27.727Z,10.33
2018-04-19T09:13:55.178Z,11.50
2018-04-19T09:16:22.635Z,12.00
2018-04-19T09:18:50.079Z,9.00
2018-04-19T09:21:17.518Z,14.87
2018-04-19T09:23:44.986Z,11.67
2018-04-19T09:26:12.466Z,15.73
2018-04-19T09:28:39.922Z,14.07
2018-04-19T09:31:07.354Z,14.10
2018-04-19T09:33:34.835Z,12.80
2018-04-19T09:36:02.279Z,8.87
2018-04-19T09:38:29.710Z,9.70
2018-04-19T09:40:57.211Z,16.10
2018-04-19T09:43:24.654Z,8.13
2018-04-19T09:45:52.094Z,10.60
2018-04-19T09:48:19.569Z,11.10
2018-04-19T09:50:47.040Z,14.10
2018-04-19T09:53:14.482Z,11.17
2018-04-19T09:55:41.942Z,13.00
2018-04-19T09:58:09.407Z,12.20
2018-04-19T10:00:42.545Z,11.30
2018-04-19T10:03:16.510Z,13.00
2018-04-19T10:05:46.870Z,10.77
2018-04-19T10:08:15.111Z,13.87
2018-04-19T10:10:42.658Z,11.60
2018-04-19T10:13:10.099Z,9.60
2018-04-19T10:15:37.570Z,12.50
2018-04-19T10:18:05.010Z,10.80
2018-04-19T10:20:32.449Z,12.00
2018-04-19T10:22:59.945Z,11.03
2018-04-19T10:25:27.385Z,12.93
2018-04-19T10:27:54.826Z,12.10
2018-04-19T10:30:22.316Z,13.77
2018-04-19T10:32:49.875Z,10.87
2018-04-19T10:35:17.305Z,9.47
2018-04-19T10:37:44.785Z,11.27
2018-04-19T10:40:12.220Z,15.13
2018-04-19T10:42:39.649Z,7.43
2018-04-19T10:45:07.874Z,14.87
2018-04-19T10:47:35.335Z,10.30
2018-04-19T10:50:02.890Z,9.00
2018-04-19T10:52:30.341Z,7.80
2018-04-19T10:54:57.797Z,7.73
2018-04-19T10:57:25.240Z,12.60
2018-04-19T10:59:52.721Z,7.97
2018-04-19T11:02:20.381Z,7.30
2018-04-19T11:04:47.835Z,5.47
2018-04-19T11:07:15.285Z,6.43
2018-04-19T11:09:42.739Z,6.13
2018-04-19T11:12:10.215Z,4.50
2018-04-19T11:14:37.647Z,8.73
2018-04-19T11:17:05.094Z,6.93
2018-04-19T11:19:33.238Z,6.20
2018-04-19T11:22:01.469Z,9.93
2018-04-19T11:24:28.894Z,4.67
2018-04-19T11:26:56.334Z,6.70
2018-04-19T11:29:23.775Z,4.43
2018-04-19T11:31:51.984Z,4.20
2018-04-19T11:34:19.471Z,6.63
2018-04-19T11:36:46.901Z,8.77
2018-04-19T11:39:14.377Z,5.00
2018-04-19T11:41:41.846Z,2.80
2018-04-19T11:44:09.298Z,3.50
2018-04-19T11:46:36.806Z,4.50
2018-04-19T11:49:04.308Z,2.50
2018-04-19T11:51:31.769Z,4.03
2018-04-19T11:53:59.215Z,3.83
2018-04-19T11:56:26.782Z,3.90
2018-04-19T11:58:54.218Z,6.63
2018-04-19T12:01:21.695Z,4.00
2018-04-19T12:03:49.132Z,2.60
2018-04-19T12:06:16.609Z,5.87
2018-04-19T12:08:44.069Z,3.50
2018-04-19T12:11:11.528Z,6.23
2018-04-19T12:13:38.969Z,6.80
2018-04-19T12:16:06.396Z,3.00
2018-04-19T12:18:34.594Z,7.50
2018-04-19T12:21:02.091Z,4.53
2018-04-19T12:23:29.526Z,3.33
2018-04-19T12:25:56.957Z,2.23
2018-04-19T12:28:24.390Z,5.33
2018-04-19T12:30:52.610Z,3.13
2018-04-19T12:33:20.070Z,6.97
2018-04-19T12:35:47.527Z,5.23
2018-04-19T12:38:14.958Z,3.87
2018-04-19T12:40:42.442Z,2.27
2018-04-19T12:43:09.882Z,3.07
2018-04-19T12:45:37.358Z,2.80
2018-04-19T12:48:04.805Z,2.70
2018-04-19T12:50:32.266Z,2.40
2018-04-19T12:52:59.730Z,4.73
2018-04-19T12:55:27.167Z,4.77
2018-04-19T12:57:54.605Z,3.20
2018-04-19T13:00:22.094Z,4.73
2018-04-19T13:02:49.539Z,3.90
2018-04-19T13:05:17.006Z,2.60
2018-04-19T13:07:44.453Z,2.47
2018-04-19T13:10:11.886Z,4.77
2018-04-19T13:12:39.333Z,2.50
2018-04-19T13:15:07.535Z,2.43
2018-04-19T13:17:35.015Z,2.43
2018-04-19T13:20:02.446Z,2.87
2018-04-19T13:22:29.921Z,3.50
2018-04-19T13:24:57.358Z,2.50
2018-04-19T13:27:24.830Z,2.57
2018-04-19T13:29:52.271Z,3.70
2018-04-19T13:32:20.374Z,2.60
2018-04-19T13:34:47.819Z,2.50
2018-04-19T13:37:15.263Z,3.53
2018-04-19T13:39:42.735Z,4.10
2018-04-19T13:42:10.194Z,2.27
2018-04-19T13:44:37.651Z,6.83
2018-04-19T13:47:05.105Z,3.43
2018-04-19T13:49:32.538Z,2.60
2018-04-19T13:52:00.027Z,1.80
2018-04-19T13:54:27.473Z,4.23
2018-04-19T13:56:54.914Z,1.43
2018-04-19T13:59:22.390Z,2.43
2018-04-19T14:01:50.087Z,1.87
2018-04-19T14:04:18.289Z,1.93
2018-04-19T14:06:45.787Z,4.30
2018-04-19T14:09:13.242Z,1.90
2018-04-19T14:11:40.703Z,2.33
2018-04-19T14:14:08.143Z,2.27
2018-04-19T14:16:35.610Z,2.43
2018-04-19T14:19:03.055Z,3.87
2018-04-19T14:21:30.534Z,2.47
2018-04-19T14:23:57.983Z,2.83
2018-04-19T14:26:25.442Z,3.03
2018-04-19T14:28:52.882Z,2.27
2018-04-19T14:31:20.314Z,4.00
2018-04-19T14:33:47.760Z,1.50
2018-04-19T14:36:15.982Z,3.60
2018-04-19T14:38:43.425Z,2.83
2018-04-19T14:41:10.877Z,3.17
2018-04-19T14:43:38.364Z,3.67
2018-04-19T14:46:05.806Z,2.43
2018-04-19T14:48:33.279Z,2.37
2018-04-19T14:51:00.842Z,4.40
2018-04-19T14:53:28.282Z,2.77
2018-04-19T14:55:55.723Z,1.80
2018-04-19T14:58:23.198Z,4.10
2018-04-19T15:00:50.651Z,1.87
2018-04-19T15:03:18.110Z,1.80
2018-04-19T15:05:45.552Z,2.47
2018-04-19T15:08:13.022Z,2.47
2018-04-19T15:10:40.461Z,4.20
2018-04-19T15:13:07.898Z,3.00
2018-04-19T15:15:35.334Z,1.87
2018-04-19T15:18:03.566Z,4.23
2018-04-19T15:20:31.015Z,3.70
2018-04-19T15:22:59.013Z,2.50
2018-04-19T15:25:26.458Z,5.03
2018-04-19T15:27:54.006Z,3.77
2018-04-19T15:30:21.456Z,1.53
2018-04-19T15:32:48.927Z,2.10
2018-04-19T15:35:16.477Z,1.67
2018-04-19T15:37:43.946Z,3.47
2018-04-19T15:40:11.395Z,2.60
2018-04-19T15:42:39.105Z,2.70
2018-04-19T15:45:07.945Z,1.70
2018-04-19T15:47:35.417Z,3.17
2018-04-19T15:50:02.863Z,3.27
2018-04-19T15:52:30.304Z,3.93
2018-04-19T15:54:57.735Z,2.03
2018-04-19T15:57:25.174Z,1.50
2018-04-19T15:59:53.380Z,1.63
2018-04-19T16:02:20.866Z,3.93
2018-04-19T16:04:48.418Z,6.57
2018-04-19T16:07:15.879Z,4.80
2018-04-19T16:09:43.322Z,3.20
2018-04-19T16:12:10.758Z,3.70
2018-04-19T16:14:38.251Z,2.00
2018-04-19T16:17:05.744Z,2.53
2018-04-19T16:19:33.137Z,1.40
2018-04-19T16:22:00.654Z,2.10
2018-04-19T16:24:28.174Z,1.30
2018-04-19T16:26:55.653Z,4.00
2018-04-19T16:29:23.048Z,5.63
2018-04-19T16:31:50.482Z,4.10
2018-04-19T16:34:18.726Z,1.20
2018-04-19T16:36:46.183Z,2.70
2018-04-19T16:39:13.630Z,2.77
2018-04-19T16:41:41.070Z,2.53
2018-04-19T16:44:08.545Z,4.80
2018-04-19T16:46:36.002Z,3.60
2018-04-19T16:49:03.567Z,1.60
2018-04-19T16:51:31.023Z,2.53
2018-04-19T16:53:58.482Z,5.13
2018-04-19T16:56:26.019Z,1.80
2018-04-19T16:58:53.450Z,7.60
2018-04-19T17:01:20.887Z,2.03
2018-04-19T17:03:49.086Z,5.50
2018-04-19T17:06:16.526Z,2.33
2018-04-19T17:08:44.731Z,6.07
2018-04-19T17:11:12.163Z,4.77
2018-04-19T17:13:40.363Z,2.00
2018-04-19T17:16:07.802Z,2.47
2018-04-19T17:18:35.240Z,2.53
2018-04-19T17:21:03.469Z,1.63
2018-04-19T17:23:30.921Z,10.70
2018-04-19T17:25:58.360Z,3.63
2018-04-19T17:28:25.801Z,1.87
2018-04-19T17:30:53.303Z,2.43
2018-04-19T17:33:21.580Z,2.40
2018-04-19T17:35:49.022Z,4.90
2018-04-19T17:38:16.495Z,3.03
2018-04-19T17:40:43.955Z,3.23
2018-04-19T17:43:11.390Z,3.37
2018-04-19T17:45:38.835Z,8.03
2018-04-19T17:48:06.314Z,4.03
2018-04-19T17:50:34.467Z,7.30
2018-04-19T17:53:01.903Z,3.47
2018-04-19T17:55:29.334Z,2.90
2018-04-19T17:57:56.769Z,2.33
2018-04-19T18:00:24.201Z,2.40
2018-04-19T18:02:51.988Z,4.50
2018-04-19T18:05:19.410Z,7.27
2018-04-19T18:07:46.863Z,3.70
2018-04-19T18:10:14.294Z,3.50
2018-04-19T18:12:42.489Z,4.23
2018-04-19T18:15:10.195Z,1.87
2018-04-19T18:17:37.745Z,6.87
2018-04-19T18:20:05.190Z,4.30
2018-04-19T18:22:32.621Z,2.80
2018-04-19T18:25:00.082Z,2.80
2018-04-19T18:27:27.574Z,2.20
2018-04-19T18:29:55.026Z,3.53
2018-04-19T18:32:22.466Z,12.70
2018-04-19T18:34:49.902Z,3.87
2018-04-19T18:37:17.333Z,3.20
2018-04-19T18:39:45.539Z,3.40
2018-04-19T18:42:13.030Z,5.23
2018-04-19T18:44:40.494Z,3.33
2018-04-19T18:47:07.933Z,3.57
2018-04-19T18:49:35.490Z,3.83
2018-04-19T18:52:02.929Z,4.30
2018-04-19T18:54:30.381Z,7.40
2018-04-19T18:56:57.865Z,5.33
2018-04-19T18:59:25.310Z,2.57
2018-04-19T19:01:53.276Z,3.63
2018-04-19T19:04:20.798Z,3.10
2018-04-19T19:06:49.005Z,3.67
2018-04-19T19:09:16.454Z,2.63
2018-04-19T19:11:43.883Z,5.03
2018-04-19T19:14:12.079Z,3.90
2018-04-19T19:16:39.544Z,3.50
2018-04-19T19:19:19.407Z,6.03
2018-04-19T19:21:46.838Z,4.70
2018-04-19T19:24:14.270Z,3.23
2018-04-19T19:26:42.491Z,2.80
2018-04-19T19:29:09.977Z,5.67
2018-04-19T19:31:37.490Z,6.80
2018-04-19T19:34:05.026Z,1.97
2018-04-19T19:36:33.358Z,2.00
2018-04-19T19:39:00.797Z,4.20
2018-04-19T19:41:28.262Z,3.00
2018-04-19T19:43:55.718Z,4.70
2018-04-19T19:46:23.186Z,4.90
2018-04-19T19:48:50.642Z,5.97
2018-04-19T19:51:18.203Z,4.70
2018-04-19T19:53:45.643Z,2.90
2018-04-19T19:56:13.230Z,4.10
2018-04-19T19:58:40.964Z,4.80
2018-04-19T20:01:08.394Z,3.73
2018-04-19T20:03:36.615Z,8.57
2018-04-19T20:06:04.068Z,6.83
2018-04-19T20:08:31.526Z,5.37
2018-04-19T20:10:59.218Z,2.97
2018-04-19T20:13:26.647Z,2.07
2018-04-19T20:15:54.342Z,3.00
2018-04-19T20:18:22.157Z,5.10
2018-04-19T20:20:49.595Z,11.60
2018-04-19T20:23:17.026Z,2.20
2018-04-19T20:25:45.222Z,4.70
2018-04-19T20:28:12.744Z,5.80
2018-04-19T20:30:40.279Z,3.20
2018-04-19T20:33:07.734Z,4.07
2018-04-19T20:35:35.184Z,2.63
2018-04-19T20:38:02.646Z,2.60
2018-04-19T20:40:30.085Z,3.43
2018-04-19T20:42:57.557Z,4.90
2018-04-19T20:45:24.987Z,3.83
2018-04-19T20:47:52.479Z,3.73
2018-04-19T20:50:20.047Z,3.43
2018-04-19T20:52:47.485Z,5.20
2018-04-19T20:55:14.935Z,5.03
2018-04-19T20:57:42.407Z,4.97
2018-04-19T21:00:09.869Z,3.80
2018-04-19T21:02:37.307Z,2.70
2018-04-19T21:05:04.757Z,17.33
2018-04-19T21:07:32.182Z,4.20
2018-04-19T21:10:00.395Z,31.07
2018-04-19T21:12:27.840Z,38.50
2018-04-19T21:14:55.279Z,11.00
2018-04-19T21:17:22.779Z,4.50
2018-04-19T21:19:50.210Z,3.30
2018-04-19T21:22:17.690Z,2.20
2018-04-19T21:24:45.119Z,2.53
2018-04-19T21:27:12.782Z,3.10
2018-04-19T21:29:40.239Z,2.30
2018-04-19T21:32:07.722Z,3.00
2018-04-19T21:34:35.166Z,2.30
2018-04-19T21:37:02.609Z,3.73
2018-04-19T21:39:30.050Z,2.30
2018-04-19T21:41:57.600Z,2.83
2018-04-19T21:44:24.983Z,5.87
2018-04-19T21:46:52.467Z,3.83
2018-04-19T21:49:19.906Z,4.47
2018-04-19T21:51:47.342Z,6.60
2018-04-19T21:54:14.798Z,3.53
2018-04-19T21:56:42.291Z,4.97
2018-04-19T21:59:09.731Z,2.50
2018-04-19T22:01:37.174Z,7.00
2018-04-19T22:04:04.626Z,3.70
2018-04-19T22:06:32.113Z,5.00
2018-04-19T22:08:59.560Z,2.30
2018-04-19T22:11:27.036Z,4.27
2018-04-19T22:13:54.474Z,2.40
2018-04-19T22:16:21.921Z,4.70
2018-04-19T22:18:49.405Z,5.03
2018-04-19T22:21:16.846Z,2.90
2018-04-19T22:23:44.286Z,1.90
2018-04-19T22:26:11.727Z,4.23
2018-04-19T22:28:39.924Z,4.67
2018-04-19T22:31:07.401Z,2.83
2018-04-19T22:33:34.842Z,6.00
2018-04-19T22:36:02.282Z,7.20
2018-04-19T22:38:29.737Z,3.63
2018-04-19T22:40:57.234Z,4.60
2018-04-19T22:43:24.689Z,2.17
2018-04-19T22:45:52.126Z,11.10
2018-04-19T22:48:19.558Z,4.40
2018-04-19T22:50:46.993Z,2.33
2018-04-19T22:53:15.198Z,4.17
2018-04-19T22:55:42.687Z,4.60
2018-04-19T22:58:10.123Z,5.07
2018-04-19T23:00:37.560Z,3.20
2018-04-19T23:03:04.997Z,19.30
2018-04-19T23:05:33.206Z,18.60
2018-04-19T23:08:00.690Z,9.90
2018-04-19T23:10:28.432Z,7.33
2018-04-19T23:12:55.912Z,3.13
2018-04-19T23:15:23.346Z,4.00
2018-04-19T23:17:50.822Z,2.30
2018-04-19T23:20:18.381Z,5.07
2018-04-19T23:22:45.844Z,3.07
2018-04-19T23:25:13.303Z,3.47
2018-04-19T23:27:40.854Z,8.57
2018-04-19T23:30:08.282Z,2.60
2018-04-19T23:32:35.718Z,3.53
2018-04-19T23:35:03.926Z,3.83
2018-04-19T23:37:31.406Z,5.30
2018-04-19T23:39:58.838Z,5.03
2018-04-19T23:42:26.279Z,4.77
2018-04-19T23:44:53.769Z,2.23
2018-04-19T23:47:21.845Z,3.10
2018-04-19T23:49:49.281Z,3.23
2018-04-19T23:52:16.709Z,3.07
2018-04-19T23:54:44.938Z,2.80
2018-04-19T23:57:12.378Z,9.27
2018-04-19T23:59:39.825Z,3.63
